Time;durP1;ratioP1;P1;durP2;ratioP2;P2;SDS_P1;SDS_P2;PMS_P1;PMS_P2;Temp;Humidity;BMP_temperature;BMP_pressure;BME280_temperature;BME280_humidity;BME280_pressure;Samples;Min_cycle;Max_cycle;Signal;HPM_P1;HPM_P2
2022/06/21 00:00:35;;;;;;;3.47;2.30;;;13.60;86.10;;;;;;5009684;28;20467;-75
2022/06/21 00:03:23;;;;;;;3.00;2.53;;;13.70;85.40;;;;;;5014248;28;20529;-74
2022/06/21 00:06:10;;;;;;;5.67;2.60;;;13.80;84.40;;;;;;5014038;28;20420;-76
2022/06/21 00:08:56;;;;;;;5.40;2.90;;;13.60;84.90;;;;;;5012907;28;20436;-75
2022/06/21 00:11:42;;;;;;;3.20;2.30;;;13.50;86.40;;;;;;5005470;28;20484;-75
2022/06/21 00:14:29;;;;;;;4.57;2.90;;;13.30;85.70;;;;;;5011086;28;20461;-75
2022/06/21 00:17:17;;;;;;;4.80;2.70;;;13.20;86.60;;;;;;5012967;28;20441;-77
2022/06/21 00:20:03;;;;;;;3.67;2.50;;;12.90;89.70;;;;;;5016231;28;20671;-75
2022/06/21 00:22:49;;;;;;;9.30;2.60;;;12.80;90.90;;;;;;5014024;28;20449;-77
2022/06/21 00:25:35;;;;;;;7.23;3.27;;;12.90;90.60;;;;;;5017849;28;20460;-76
2022/06/21 00:28:21;;;;;;;4.47;2.70;;;13.00;90.30;;;;;;5016007;28;20420;-77
2022/06/21 00:31:15;;;;;;;3.83;1.83;;;13.20;89.40;;;;;;5013254;28;20548;-76
2022/06/21 00:34:05;;;;;;;5.37;3.20;;;13.30;88.20;;;;;;5013650;28;20993;-77
2022/06/21 00:36:52;;;;;;;4.77;2.73;;;13.30;87.60;;;;;;5013394;28;20467;-77
2022/06/21 00:39:38;;;;;;;4.90;2.60;;;13.10;88.70;;;;;;5012113;28;20431;-77
2022/06/21 00:42:28;;;;;;;4.43;2.43;;;12.90;89.10;;;;;;5007952;28;20505;-77
2022/06/21 00:45:19;;;;;;;4.03;2.60;;;12.80;90.10;;;;;;5013207;28;20445;-77
2022/06/21 00:48:13;;;;;;;4.53;2.40;;;12.90;90.30;;;;;;5007314;28;20437;-76
2022/06/21 00:51:07;;;;;;;12.00;3.03;;;12.70;90.10;;;;;;5008030;28;20461;-77
2022/06/21 00:53:58;;;;;;;4.10;3.00;;;12.60;91.10;;;;;;5009006;28;20601;-75
2022/06/21 00:56:51;;;;;;;9.23;3.13;;;12.70;91.40;;;;;;5012107;28;20617;-77
2022/06/21 00:59:38;;;;;;;4.40;2.97;;;12.90;90.90;;;;;;5010292;28;20525;-76
2022/06/21 01:02:29;;;;;;;4.63;3.27;;;13.00;90.20;;;;;;5010851;28;20449;-76
2022/06/21 01:05:16;;;;;;;4.67;2.47;;;12.90;90.10;;;;;;5015867;28;21083;-77
2022/06/21 01:08:02;;;;;;;4.77;3.03;;;13.00;90.00;;;;;;5009060;28;20930;-76
2022/06/21 01:10:52;;;;;;;7.70;3.00;;;13.00;89.80;;;;;;5007456;28;21029;-77
2022/06/21 01:13:42;;;;;;;3.50;2.17;;;13.10;89.50;;;;;;5012512;28;20424;-77
2022/06/21 01:16:29;;;;;;;2.70;2.10;;;13.10;88.80;;;;;;5006153;28;20469;-77
2022/06/21 01:19:20;;;;;;;4.70;2.27;;;13.10;87.70;;;;;;5010353;28;20548;-77
2022/06/21 01:22:22;;;;;;;4.67;2.60;;;12.90;88.30;;;;;;5008441;28;20588;-76
2022/06/21 01:25:23;;;;;;;3.50;2.73;;;12.90;89.10;;;;;;5012318;28;20961;-76
2022/06/21 01:28:11;;;;;;;5.97;2.83;;;12.90;89.80;;;;;;5016220;28;20461;-76
2022/06/21 01:30:59;;;;;;;4.90;2.57;;;13.00;89.70;;;;;;5009713;28;20466;-76
2022/06/21 01:33:45;;;;;;;5.07;2.80;;;12.90;88.10;;;;;;5011982;28;20461;-76
2022/06/21 01:36:35;;;;;;;3.87;2.27;;;12.80;88.50;;;;;;5010281;28;20489;-76
2022/06/21 01:39:25;;;;;;;3.37;2.70;;;12.60;88.80;;;;;;5008953;28;21124;-76
2022/06/21 01:42:17;;;;;;;5.10;3.20;;;12.40;90.20;;;;;;5008277;28;20528;-77
2022/06/21 01:45:07;;;;;;;3.13;2.40;;;12.00;91.50;;;;;;5017332;28;20478;-75
2022/06/21 01:47:58;;;;;;;5.03;2.60;;;11.90;92.50;;;;;;5009291;28;20411;-76
2022/06/21 01:50:46;;;;;;;3.33;2.33;;;12.10;92.60;;;;;;5004915;28;20507;-76
2022/06/21 01:53:33;;;;;;;3.93;2.67;;;12.20;92.20;;;;;;5011590;28;20457;-75
2022/06/21 01:56:22;;;;;;;3.70;2.60;;;12.40;91.60;;;;;;5010581;28;20533;-77
2022/06/21 01:59:13;;;;;;;3.33;2.80;;;12.50;91.40;;;;;;5006715;28;20436;-75
2022/06/21 02:02:02;;;;;;;3.70;2.90;;;12.60;90.60;;;;;;5015753;28;20917;-76
2022/06/21 02:04:53;;;;;;;5.30;3.23;;;12.40;90.40;;;;;;5012897;28;20422;-77
2022/06/21 02:07:44;;;;;;;5.13;2.70;;;12.30;90.80;;;;;;5016580;28;20520;-77
2022/06/21 02:10:34;;;;;;;3.30;2.37;;;12.30;90.90;;;;;;5017325;28;20556;-76
2022/06/21 02:13:25;;;;;;;6.90;2.70;;;12.30;90.80;;;;;;5009941;28;20469;-76
2022/06/21 02:16:16;;;;;;;5.97;3.93;;;12.20;90.90;;;;;;5010692;28;20455;-77
2022/06/21 02:19:03;;;;;;;3.07;2.70;;;12.20;90.80;;;;;;5005310;28;20431;-75
2022/06/21 02:21:49;;;;;;;3.47;2.77;;;12.30;90.60;;;;;;5008605;28;20444;-76
2022/06/21 02:24:35;;;;;;;4.53;2.57;;;12.40;90.40;;;;;;5010356;28;20567;-75
2022/06/21 02:27:24;;;;;;;4.33;2.37;;;12.30;90.60;;;;;;5009665;28;20511;-76
2022/06/21 02:30:17;;;;;;;4.13;3.00;;;12.20;90.50;;;;;;5007656;28;20596;-76
2022/06/21 02:33:06;;;;;;;2.93;2.63;;;12.00;91.20;;;;;;5011350;28;20419;-76
2022/06/21 02:35:56;;;;;;;3.57;2.73;;;12.10;91.00;;;;;;5003866;28;20448;-76
2022/06/21 02:38:50;;;;;;;5.20;2.37;;;12.00;90.70;;;;;;5006586;28;20932;-76
2022/06/21 02:41:40;;;;;;;5.23;2.80;;;12.00;90.70;;;;;;5009316;28;20473;-76
2022/06/21 02:44:30;;;;;;;3.47;2.97;;;12.00;91.20;;;;;;5007847;28;20424;-76
2022/06/21 02:47:19;;;;;;;3.33;2.57;;;12.10;90.90;;;;;;5012416;28;20492;-76
2022/06/21 02:50:14;;;;;;;3.70;3.03;;;12.00;90.60;;;;;;5004950;28;20567;-73
2022/06/21 02:53:02;;;;;;;8.27;2.93;;;11.90;90.90;;;;;;5008689;28;20797;-75
2022/06/21 02:55:54;;;;;;;3.00;2.53;;;11.90;91.20;;;;;;5007820;28;20969;-76
2022/06/21 02:58:43;;;;;;;3.83;3.00;;;11.80;91.20;;;;;;5006308;28;20594;-75
2022/06/21 03:01:35;;;;;;;3.33;2.93;;;11.90;90.90;;;;;;5010297;28;20443;-76
2022/06/21 03:04:26;;;;;;;4.00;3.07;;;11.90;91.00;;;;;;5006865;28;20555;-75
2022/06/21 03:07:17;;;;;;;5.27;3.20;;;11.90;90.90;;;;;;5012808;28;20445;-76
2022/06/21 03:10:06;;;;;;;3.07;2.70;;;11.80;91.00;;;;;;5005613;28;20979;-76
2022/06/21 03:13:01;;;;;;;5.87;3.10;;;11.80;90.80;;;;;;5008801;28;20458;-76
2022/06/21 03:15:51;;;;;;;4.90;3.10;;;11.80;91.00;;;;;;5012186;28;20430;-76
2022/06/21 03:18:41;;;;;;;6.57;3.97;;;11.70;91.10;;;;;;5010164;28;21082;-75
2022/06/21 03:21:30;;;;;;;3.67;3.10;;;11.70;91.40;;;;;;5013294;28;20965;-76
2022/06/21 03:24:20;;;;;;;6.83;3.60;;;11.60;92.00;;;;;;5010122;28;20424;-76
2022/06/21 03:27:20;;;;;;;4.77;3.53;;;11.80;91.50;;;;;;5011332;28;20419;-75
2022/06/21 03:30:07;;;;;;;4.10;2.80;;;11.80;91.10;;;;;;5014300;28;20465;-76
2022/06/21 03:32:55;;;;;;;7.67;2.70;;;11.60;91.20;;;;;;5011461;28;20445;-76
2022/06/21 03:35:41;;;;;;;4.30;3.07;;;11.70;91.60;;;;;;5009022;28;20494;-76
2022/06/21 03:38:28;;;;;;;4.27;3.27;;;11.80;91.60;;;;;;5005221;28;20435;-76
2022/06/21 03:44:26;;;;;;;5.30;2.57;;;11.70;91.20;;;;;;5007335;28;20416;-76
2022/06/21 03:47:17;;;;;;;5.70;2.67;;;11.80;91.20;;;;;;5004727;28;20412;-74
2022/06/21 03:50:08;;;;;;;4.00;3.27;;;11.80;91.50;;;;;;5008819;28;21014;-75
2022/06/21 03:52:58;;;;;;;5.17;3.40;;;11.90;91.90;;;;;;5009428;28;20471;-76
2022/06/21 03:55:50;;;;;;;5.07;4.03;;;12.00;92.00;;;;;;5008915;28;20588;-76
2022/06/21 03:58:49;;;;;;;4.50;3.23;;;12.10;92.00;;;;;;5005340;28;20427;-76
2022/06/21 04:01:41;;;;;;;5.60;3.23;;;12.10;91.80;;;;;;5007718;28;20560;-76
2022/06/21 04:04:31;;;;;;;3.70;2.93;;;11.90;91.70;;;;;;5006376;28;20775;-75
2022/06/21 04:07:24;;;;;;;5.90;3.57;;;11.90;91.90;;;;;;5007069;28;20422;-76
2022/06/21 04:10:16;;;;;;;4.40;3.17;;;11.80;92.10;;;;;;5004918;28;20459;-76
2022/06/21 04:13:06;;;;;;;7.17;3.53;;;11.70;92.90;;;;;;5010116;28;20449;-76
2022/06/21 04:15:57;;;;;;;6.43;3.97;;;11.60;93.20;;;;;;5008900;28;20516;-76
2022/06/21 04:18:49;;;;;;;4.67;4.13;;;11.50;95.00;;;;;;5006779;28;20428;-75
2022/06/21 04:21:39;;;;;;;6.23;4.00;;;11.40;97.60;;;;;;5009028;28;20456;-75
2022/06/21 04:24:30;;;;;;;5.70;4.17;;;11.40;99.50;;;;;;5014571;28;20423;-77
2022/06/21 04:27:20;;;;;;;6.20;4.63;;;11.50;99.90;;;;;;5007132;28;20442;-74
2022/06/21 04:30:10;;;;;;;6.43;4.47;;;11.60;99.90;;;;;;5015109;28;21025;-77
2022/06/21 04:33:05;;;;;;;5.50;4.53;;;11.80;99.90;;;;;;5008882;28;20469;-77
2022/06/21 04:35:56;;;;;;;4.57;3.77;;;12.00;99.90;;;;;;5014160;28;20504;-76
2022/06/21 04:38:47;;;;;;;5.30;4.73;;;12.10;99.90;;;;;;5009382;28;21486;-76
2022/06/21 04:41:40;;;;;;;5.97;4.30;;;12.30;99.90;;;;;;5012696;28;20480;-76
2022/06/21 04:44:32;;;;;;;6.13;4.93;;;12.40;99.90;;;;;;5010007;28;20449;-75
2022/06/21 04:47:23;;;;;;;11.70;6.90;;;12.40;99.90;;;;;;5006018;28;20448;-75
2022/06/21 04:50:24;;;;;;;5.70;3.73;;;12.50;99.90;;;;;;5006639;28;21056;-76
2022/06/21 04:53:19;;;;;;;5.40;4.67;;;12.60;99.90;;;;;;5005083;28;20453;-76
2022/06/21 04:56:10;;;;;;;4.73;4.10;;;12.70;99.90;;;;;;5010347;28;20437;-76
2022/06/21 04:58:57;;;;;;;7.20;5.33;;;12.80;99.90;;;;;;5005595;28;20806;-75
2022/06/21 05:01:43;;;;;;;7.60;4.87;;;12.90;99.90;;;;;;5006754;28;21062;-75
2022/06/21 05:04:33;;;;;;;5.30;4.00;;;12.90;99.90;;;;;;5014045;28;20461;-75
2022/06/21 05:07:22;;;;;;;6.60;4.77;;;13.00;99.90;;;;;;5006992;28;20420;-76
2022/06/21 05:10:16;;;;;;;5.37;4.70;;;13.30;99.90;;;;;;5025535;22;20480;-77
2022/06/21 05:13:05;;;;;;;5.20;4.70;;;13.40;99.90;;;;;;5045055;28;20991;-73
2022/06/21 05:15:51;;;;;;;6.97;4.80;;;13.60;99.90;;;;;;5057352;28;20470;-74
2022/06/21 05:18:42;;;;;;;8.60;4.83;;;13.70;99.90;;;;;;5042937;28;20514;-74
2022/06/21 05:21:34;;;;;;;5.90;4.40;;;13.80;99.90;;;;;;5042616;28;20476;-73
2022/06/21 05:24:20;;;;;;;6.70;5.17;;;13.80;99.90;;;;;;5033219;28;20949;-72
2022/06/21 05:27:10;;;;;;;7.57;4.80;;;13.90;99.90;;;;;;5034218;28;20448;-75
2022/06/21 05:30:01;;;;;;;5.70;4.80;;;13.90;99.90;;;;;;5031518;28;20436;-74
2022/06/21 05:32:51;;;;;;;6.03;4.60;;;13.90;99.90;;;;;;5031471;28;20452;-74
2022/06/21 05:35:37;;;;;;;7.03;5.20;;;14.10;99.90;;;;;;5033938;28;21256;-75
2022/06/21 05:38:26;;;;;;;5.70;4.23;;;14.30;99.90;;;;;;5028621;28;20599;-75
2022/06/21 05:41:29;;;;;;;6.00;4.17;;;14.40;99.90;;;;;;5032460;28;20464;-75
2022/06/21 05:44:30;;;;;;;4.97;4.47;;;14.60;99.90;;;;;;5027591;28;20452;-75
2022/06/21 05:47:23;;;;;;;6.80;4.43;;;14.70;99.90;;;;;;5025030;28;20464;-73
2022/06/21 05:50:13;;;;;;;7.13;4.07;;;14.90;99.90;;;;;;5032664;28;20433;-75
2022/06/21 05:53:03;;;;;;;6.17;4.57;;;15.10;99.90;;;;;;5034732;28;20453;-74
2022/06/21 05:55:49;;;;;;;7.00;4.27;;;15.30;99.90;;;;;;5029269;28;20715;-73
2022/06/21 05:58:39;;;;;;;7.87;4.27;;;15.40;99.90;;;;;;5034159;28;20586;-75
2022/06/21 06:01:30;;;;;;;5.60;4.43;;;15.50;99.90;;;;;;5027418;28;20468;-74
2022/06/21 06:04:22;;;;;;;4.30;3.90;;;15.50;99.90;;;;;;5028477;28;20975;-74
2022/06/21 06:07:14;;;;;;;5.30;4.30;;;15.60;99.90;;;;;;5025066;28;20467;-74
2022/06/21 06:10:03;;;;;;;7.43;4.40;;;15.80;99.90;;;;;;5030639;28;20477;-74
2022/06/21 06:12:54;;;;;;;5.60;4.13;;;16.00;99.90;;;;;;5029073;28;20464;-75
2022/06/21 06:15:45;;;;;;;7.70;3.53;;;16.10;99.90;;;;;;5029753;28;20587;-71
2022/06/21 06:18:41;;;;;;;4.60;3.90;;;16.20;99.90;;;;;;5028259;28;20476;-73
2022/06/21 06:21:34;;;;;;;5.80;4.27;;;16.20;99.90;;;;;;5031364;28;20455;-74
2022/06/21 06:24:28;;;;;;;5.07;3.93;;;16.30;99.90;;;;;;5026807;28;20527;-74
2022/06/21 06:27:27;;;;;;;6.47;3.40;;;16.20;99.90;;;;;;5027311;28;20440;-74
2022/06/21 06:30:18;;;;;;;5.67;3.70;;;16.30;99.90;;;;;;5026773;28;20427;-75
2022/06/21 06:33:14;;;;;;;9.73;4.33;;;16.50;99.90;;;;;;5034762;28;20443;-74
2022/06/21 06:36:05;;;;;;;5.57;3.70;;;16.80;99.90;;;;;;5027008;28;20847;-75
2022/06/21 06:38:50;;;;;;;6.20;3.50;;;17.10;99.50;;;;;;5029010;28;20539;-75
2022/06/21 06:41:46;;;;;;;7.00;2.83;;;17.20;97.10;;;;;;5029512;28;20936;-73
2022/06/21 06:44:36;;;;;;;4.87;2.57;;;17.50;94.20;;;;;;5029902;28;20808;-75
2022/06/21 06:47:28;;;;;;;4.87;2.70;;;17.60;90.40;;;;;;5027034;28;20523;-75
2022/06/21 06:50:18;;;;;;;5.70;2.67;;;17.60;86.60;;;;;;5031635;28;20448;-75
2022/06/21 06:53:10;;;;;;;6.37;2.73;;;17.80;86.60;;;;;;5034156;28;20813;-75
2022/06/21 06:56:00;;;;;;;3.00;2.20;;;18.00;89.40;;;;;;5029039;28;20435;-73
2022/06/21 06:58:51;;;;;;;5.67;2.70;;;18.10;86.70;;;;;;5029091;28;20472;-75
2022/06/21 07:01:45;;;;;;;4.40;2.43;;;18.30;82.50;;;;;;5033241;28;20608;-74
2022/06/21 07:04:36;;;;;;;4.30;2.33;;;18.50;80.40;;;;;;5025328;28;20444;-71
2022/06/21 07:07:28;;;;;;;4.50;2.43;;;18.60;79.90;;;;;;5027162;28;20439;-75
2022/06/21 07:10:19;;;;;;;9.63;3.20;;;18.70;72.50;;;;;;5021310;28;20514;-75
2022/06/21 07:13:05;;;;;;;3.70;1.90;;;18.60;69.60;;;;;;5026731;28;20448;-74
2022/06/21 07:15:52;;;;;;;5.43;2.53;;;18.70;69.30;;;;;;5024096;28;20802;-75
2022/06/21 07:18:45;;;;;;;5.13;2.40;;;18.90;71.70;;;;;;5022630;28;20479;-74
2022/06/21 07:21:30;;;;;;;7.03;2.50;;;19.10;72.20;;;;;;5022647;28;20464;-73
2022/06/21 07:24:19;;;;;;;8.93;2.73;;;19.20;70.40;;;;;;5028591;28;20440;-74
2022/06/21 07:27:13;;;;;;;4.37;2.17;;;19.30;69.30;;;;;;5041503;28;20631;-74
2022/06/21 07:30:03;;;;;;;5.23;2.30;;;19.60;68.30;;;;;;5043968;28;20792;-74
2022/06/21 07:32:55;;;;;;;4.53;2.10;;;19.70;65.50;;;;;;5035543;28;20425;-75
2022/06/21 07:35:44;;;;;;;7.40;2.27;;;19.40;55.00;;;;;;5024728;28;21062;-73
2022/06/21 07:38:36;;;;;;;5.00;2.10;;;19.30;56.40;;;;;;5034933;28;20472;-73
2022/06/21 07:41:27;;;;;;;3.23;2.03;;;19.40;60.80;;;;;;5028505;28;20477;-73
2022/06/21 07:44:20;;;;;;;10.23;2.70;;;19.60;57.50;;;;;;5029027;28;20535;-72
2022/06/21 07:47:12;;;;;;;5.90;2.50;;;19.70;53.90;;;;;;5035160;28;20444;-74
2022/06/21 07:50:03;;;;;;;5.30;2.60;;;19.70;53.00;;;;;;5032580;28;20447;-73
2022/06/21 07:52:55;;;;;;;9.90;2.40;;;19.90;53.70;;;;;;5035873;28;20526;-73
2022/06/21 07:55:44;;;;;;;6.03;2.00;;;20.00;53.30;;;;;;5023071;28;20524;-74
2022/06/21 07:58:35;;;;;;;3.53;2.27;;;20.10;49.20;;;;;;5034705;28;20461;-74
2022/06/21 08:07:42;;;;;;;6.03;1.90;;;20.50;50.70;;;;;;5025429;28;20424;-74
2022/06/21 08:10:37;;;;;;;6.07;2.90;;;20.60;52.60;;;;;;5041697;28;20994;-74
2022/06/21 08:13:26;;;;;;;6.50;2.00;;;20.90;52.80;;;;;;5032204;28;20453;-73
2022/06/21 08:16:14;;;;;;;4.33;1.97;;;21.10;50.60;;;;;;5027255;28;20445;-73
2022/06/21 08:19:07;;;;;;;6.77;2.23;;;21.20;51.70;;;;;;5030597;28;21008;-73
2022/06/21 08:21:58;;;;;;;3.97;1.90;;;21.20;45.90;;;;;;5018116;28;20592;-72
2022/06/21 08:24:52;;;;;;;5.07;2.70;;;21.20;46.70;;;;;;5018943;28;20480;-71
2022/06/21 08:27:46;;;;;;;6.50;2.10;;;21.10;46.60;;;;;;5020399;28;20547;-73
2022/06/21 08:30:40;;;;;;;6.57;2.30;;;21.00;46.90;;;;;;5041440;28;20451;-71
2022/06/21 08:33:34;;;;;;;6.23;1.80;;;21.10;45.90;;;;;;5026023;28;20429;-72
2022/06/21 08:36:26;;;;;;;5.77;2.27;;;21.00;47.60;;;;;;5041663;28;20482;-72
2022/06/21 08:39:21;;;;;;;6.90;2.33;;;21.10;49.10;;;;;;5033744;28;20617;-71
2022/06/21 08:42:44;;;;;;;10.53;2.27;;;21.20;46.30;;;;;;5038622;28;20442;-72
2022/06/21 08:46:04;;;;;;;2.80;1.63;;;21.30;46.00;;;;;;5024679;28;20539;-71
2022/06/21 08:49:06;;;;;;;4.13;1.90;;;21.50;46.60;;;;;;5039396;28;20534;-73
2022/06/21 08:52:30;;;;;;;4.73;1.90;;;21.60;46.50;;;;;;5042005;28;20963;-72
2022/06/21 08:55:23;;;;;;;7.67;2.53;;;21.80;46.90;;;;;;5030440;28;20506;-73
2022/06/21 08:58:23;;;;;;;10.73;2.20;;;22.00;46.90;;;;;;5038776;28;20562;-72
2022/06/21 09:01:17;;;;;;;4.93;2.10;;;22.10;44.90;;;;;;5030078;28;20452;-72
2022/06/21 09:04:34;;;;;;;6.47;1.93;;;22.20;43.10;;;;;;5028067;28;20468;-73
2022/06/21 09:07:53;;;;;;;5.70;2.20;;;22.20;41.90;;;;;;5028452;28;20407;-72
2022/06/21 09:10:53;;;;;;;4.30;2.40;;;22.30;42.00;;;;;;5037006;28;20487;-73
2022/06/21 09:14:02;;;;;;;4.83;1.60;;;22.30;42.00;;;;;;5038229;28;20447;-73
2022/06/21 09:16:58;;;;;;;3.80;1.70;;;22.40;43.50;;;;;;5031380;28;20505;-74
2022/06/21 09:19:54;;;;;;;4.67;1.93;;;22.50;42.20;;;;;;5025533;28;20472;-74
2022/06/21 09:22:53;;;;;;;5.57;2.13;;;22.60;40.00;;;;;;5033929;28;20509;-75
2022/06/21 09:25:46;;;;;;;5.53;1.90;;;22.70;39.70;;;;;;5037326;28;20427;-75
2022/06/21 09:28:40;;;;;;;6.50;2.80;;;22.70;42.40;;;;;;5040645;28;20472;-75
2022/06/21 09:31:35;;;;;;;3.37;1.53;;;22.90;41.10;;;;;;5043540;28;20551;-74
2022/06/21 09:34:29;;;;;;;3.67;1.90;;;23.00;38.80;;;;;;5035629;28;20447;-75
2022/06/21 09:37:24;;;;;;;5.13;2.03;;;23.10;37.10;;;;;;5041549;28;20428;-75
2022/06/21 09:40:22;;;;;;;5.27;1.77;;;23.10;36.80;;;;;;5041116;28;20421;-74
2022/06/21 09:43:24;;;;;;;3.83;1.63;;;23.10;36.60;;;;;;5032351;28;20444;-75
2022/06/21 09:46:19;;;;;;;3.73;1.33;;;23.00;37.90;;;;;;5036208;28;20470;-74
2022/06/21 09:49:12;;;;;;;4.83;2.43;;;23.10;36.60;;;;;;5036664;28;20420;-75
2022/06/21 09:52:06;;;;;;;3.77;2.00;;;23.10;36.50;;;;;;5043288;28;20447;-74
2022/06/21 09:54:59;;;;;;;5.63;1.90;;;23.10;35.00;;;;;;5030981;28;20932;-75
2022/06/21 09:57:53;;;;;;;3.90;1.60;;;23.10;35.20;;;;;;5044457;28;20424;-74
2022/06/21 10:00:44;;;;;;;5.57;1.63;;;23.20;36.40;;;;;;5042222;28;20443;-75
2022/06/21 10:03:42;;;;;;;7.63;1.83;;;23.30;37.30;;;;;;5040121;28;20523;-74
2022/06/21 10:06:36;;;;;;;7.47;1.70;;;23.10;33.80;;;;;;5028762;28;20445;-74
2022/06/21 10:09:33;;;;;;;4.43;2.00;;;23.20;37.80;;;;;;5030383;28;20445;-74
2022/06/21 10:12:32;;;;;;;4.83;1.90;;;23.50;37.20;;;;;;5025524;28;20538;-74
2022/06/21 10:15:39;;;;;;;6.00;2.00;;;23.70;36.40;;;;;;5029160;28;20448;-71
2022/06/21 10:18:53;;;;;;;6.73;2.27;;;23.70;35.50;;;;;;5024774;28;20471;-72
2022/06/21 10:22:00;;;;;;;5.30;2.00;;;23.70;34.50;;;;;;5028606;28;20471;-71
2022/06/21 10:25:11;;;;;;;5.57;1.90;;;23.70;34.90;;;;;;5030236;28;20460;-72
2022/06/21 10:28:42;;;;;;;3.50;2.03;;;23.70;34.10;;;;;;5026516;28;20462;-72
2022/06/21 10:31:48;;;;;;;3.17;1.50;;;23.70;32.80;;;;;;5007857;28;20492;-71
2022/06/21 10:35:10;;;;;;;3.30;1.37;;;23.70;32.80;;;;;;5027379;28;20456;-72
2022/06/21 10:38:08;;;;;;;3.40;1.67;;;23.80;31.80;;;;;;5024777;28;20449;-71
2022/06/21 10:41:16;;;;;;;4.10;1.60;;;24.10;32.70;;;;;;5026645;28;20475;-71
2022/06/21 10:44:26;;;;;;;6.17;1.80;;;24.30;31.90;;;;;;5024871;28;20452;-71
2022/06/21 10:47:23;;;;;;;6.10;1.70;;;24.50;30.00;;;;;;5024300;28;20444;-71
2022/06/21 10:50:19;;;;;;;4.50;1.70;;;24.50;28.10;;;;;;5029099;28;20519;-71
2022/06/21 10:53:30;;;;;;;4.20;2.00;;;24.50;30.00;;;;;;5027697;28;20526;-72
2022/06/21 11:03:02;;;;;;;6.57;1.70;;;24.60;29.20;;;;;;5023083;28;21006;-72
2022/06/21 11:05:59;;;;;;;5.47;1.80;;;24.70;29.50;;;;;;5027821;28;20526;-72
2022/06/21 11:08:57;;;;;;;5.80;1.73;;;25.00;27.90;;;;;;5024305;28;20957;-71
2022/06/21 11:11:51;;;;;;;5.87;1.83;;;24.90;28.10;;;;;;5051484;22;20491;-91
2022/06/21 11:14:43;;;;;;;4.23;1.50;;;25.00;28.60;;;;;;5077107;28;20987;-90
2022/06/21 11:17:39;;;;;;;3.60;1.37;;;25.20;28.10;;;;;;5083049;28;20633;-90
2022/06/21 11:20:33;;;;;;;4.50;1.57;;;25.20;26.80;;;;;;5076366;28;20955;-90
2022/06/21 11:23:29;;;;;;;2.30;1.30;;;25.30;27.90;;;;;;5080109;28;20447;-91
2022/06/21 11:26:24;;;;;;;3.83;1.40;;;25.40;25.70;;;;;;5079886;28;20430;-91
2022/06/21 11:29:22;;;;;;;6.40;1.90;;;25.50;27.60;;;;;;5082662;28;21017;-92
2022/06/21 11:32:23;;;;;;;6.33;1.60;;;25.50;25.40;;;;;;5074045;28;20576;-92
2022/06/21 11:35:20;;;;;;;4.87;1.97;;;25.40;25.20;;;;;;5084832;28;20547;-90
2022/06/21 11:38:32;;;;;;;3.87;1.40;;;25.40;27.70;;;;;;5082719;28;20496;-91
2022/06/21 11:45:06;;;;;;;3.23;1.50;;;25.80;26.20;;;;;;5080782;28;20461;-91
2022/06/21 11:48:32;;;;;;;3.87;1.57;;;25.90;26.30;;;;;;5071974;28;20994;-90
2022/06/21 11:51:40;;;;;;;4.40;1.77;;;25.90;25.20;;;;;;5073164;28;20458;-91
2022/06/21 11:54:33;;;;;;;6.43;2.30;;;25.90;24.90;;;;;;5084259;28;20465;-91
2022/06/21 11:57:30;;;;;;;8.23;1.70;;;26.00;26.00;;;;;;5087370;28;20457;-91
2022/06/21 12:00:25;;;;;;;4.17;1.93;;;26.10;27.50;;;;;;5085489;28;21081;-90
2022/06/21 12:03:17;;;;;;;3.30;1.30;;;26.20;27.10;;;;;;5085640;28;20437;-91
2022/06/21 12:06:11;;;;;;;3.20;1.57;;;26.10;25.80;;;;;;5087749;28;20597;-91
2022/06/21 12:09:03;;;;;;;4.57;1.83;;;26.10;27.10;;;;;;5090367;28;20451;-92
2022/06/21 12:12:13;;;;;;;3.93;1.60;;;26.20;27.00;;;;;;5077876;28;20476;-92
2022/06/21 12:15:15;;;;;;;4.13;2.03;;;26.30;25.60;;;;;;5084135;28;20468;-91
2022/06/21 12:18:07;;;;;;;4.10;1.90;;;26.60;26.40;;;;;;5089681;28;20490;-91
2022/06/21 12:20:56;;;;;;;3.90;1.70;;;26.80;27.50;;;;;;5076540;28;20451;-93
2022/06/21 12:23:46;;;;;;;4.60;1.60;;;27.10;26.10;;;;;;5089784;28;20441;-91
2022/06/21 12:26:34;;;;;;;8.07;1.60;;;27.20;25.90;;;;;;5084511;28;20443;-92
2022/06/21 12:29:23;;;;;;;3.80;1.80;;;27.40;26.40;;;;;;5087144;28;20455;-91
2022/06/21 12:32:19;;;;;;;4.40;2.40;;;27.50;26.10;;;;;;5077589;28;20452;-91
2022/06/21 12:35:13;;;;;;;6.00;3.50;;;27.40;26.60;;;;;;5087639;28;20469;-91
2022/06/21 12:37:59;;;;;;;5.43;1.80;;;27.40;27.00;;;;;;5083388;28;21007;-91
2022/06/21 12:40:54;;;;;;;4.57;1.93;;;27.30;27.40;;;;;;5081763;28;20437;-90
2022/06/21 12:43:51;;;;;;;5.00;2.03;;;27.20;27.60;;;;;;5089680;28;20455;-92
2022/06/21 12:46:43;;;;;;;4.57;1.73;;;27.10;27.50;;;;;;5086165;28;20442;-92
2022/06/21 12:50:06;;;;;;;5.97;2.00;;;27.20;28.60;;;;;;5095080;28;20512;-92
2022/06/21 12:53:02;;;;;;;4.30;1.57;;;27.40;28.10;;;;;;5086759;28;20430;-93
2022/06/21 12:55:58;;;;;;;4.03;2.00;;;27.70;27.40;;;;;;5085819;28;20515;-92
2022/06/21 12:59:29;;;;;;;3.90;1.80;;;27.80;26.20;;;;;;5089782;28;20458;-92
2022/06/21 13:02:32;;;;;;;8.47;1.77;;;27.70;26.40;;;;;;5085325;28;20516;-92
2022/06/21 13:05:55;;;;;;;5.47;2.37;;;27.80;26.60;;;;;;5088880;28;20466;-92
2022/06/21 13:09:16;;;;;;;5.30;2.10;;;27.90;27.40;;;;;;5089224;28;20453;-92
2022/06/21 13:12:17;;;;;;;9.37;2.00;;;28.10;26.50;;;;;;5067139;28;20433;-92
2022/06/21 13:15:30;;;;;;;5.00;2.83;;;28.10;26.30;;;;;;5089516;28;20971;-92
2022/06/21 13:18:43;;;;;;;4.80;2.33;;;28.10;26.50;;;;;;5091470;28;20464;-92
2022/06/21 13:21:42;;;;;;;5.70;2.07;;;27.90;26.20;;;;;;5074495;28;20434;-93
2022/06/21 13:24:44;;;;;;;7.63;2.67;;;27.80;27.00;;;;;;5089474;28;20448;-93
2022/06/21 13:27:45;;;;;;;3.70;1.80;;;27.80;26.90;;;;;;5097120;28;20525;-92
2022/06/21 13:30:43;;;;;;;4.03;2.10;;;27.80;28.60;;;;;;5089188;28;20437;-92
2022/06/21 13:33:52;;;;;;;3.90;2.00;;;27.70;27.50;;;;;;5092064;28;21211;-92
2022/06/21 13:36:41;;;;;;;9.23;2.13;;;27.60;28.80;;;;;;5088123;28;20438;-92
2022/06/21 13:39:37;;;;;;;6.70;2.70;;;27.40;28.50;;;;;;5091567;28;20466;-93
2022/06/21 13:42:40;;;;;;;4.90;2.07;;;27.30;29.70;;;;;;5091398;28;20443;-92
2022/06/21 13:45:40;;;;;;;5.30;2.23;;;27.20;28.50;;;;;;5083236;28;20981;-92
2022/06/21 13:48:33;;;;;;;4.20;1.90;;;27.00;28.30;;;;;;5094639;28;20446;-92
2022/06/21 13:51:34;;;;;;;5.07;2.00;;;27.00;28.40;;;;;;5083573;28;20433;-92
2022/06/21 13:54:26;;;;;;;2.70;1.83;;;27.30;29.10;;;;;;5098694;22;20477;-71
2022/06/21 13:57:36;;;;;;;7.87;1.90;;;27.70;27.50;;;;;;5048241;28;20810;-71
2022/06/21 14:00:37;;;;;;;4.20;2.33;;;27.80;26.60;;;;;;5045008;28;20475;-71
2022/06/21 14:03:36;;;;;;;5.33;2.00;;;28.10;25.90;;;;;;5030946;28;20497;-71
2022/06/21 14:06:29;;;;;;;7.43;2.87;;;28.30;27.30;;;;;;5034643;28;20823;-71
2022/06/21 14:09:21;;;;;;;4.93;2.43;;;28.50;25.90;;;;;;5031437;28;20448;-72
2022/06/21 14:12:14;;;;;;;3.67;2.10;;;28.70;24.60;;;;;;5030577;28;20490;-71
2022/06/21 14:15:04;;;;;;;5.07;2.13;;;28.70;25.30;;;;;;5035450;28;20447;-71
2022/06/21 14:17:57;;;;;;;6.07;2.23;;;28.80;24.90;;;;;;5034201;28;21035;-71
2022/06/21 14:20:52;;;;;;;8.10;2.40;;;28.90;25.90;;;;;;5031063;28;21008;-71
2022/06/21 14:23:43;;;;;;;3.47;2.23;;;29.00;25.10;;;;;;5032088;28;20453;-71
2022/06/21 14:26:32;;;;;;;7.73;2.17;;;29.20;25.70;;;;;;5035494;28;20441;-71
2022/06/21 14:29:26;;;;;;;10.00;2.70;;;29.30;24.70;;;;;;5026713;28;20464;-71
2022/06/21 14:32:18;;;;;;;6.50;2.10;;;29.40;24.30;;;;;;5035254;28;20496;-71
2022/06/21 14:35:11;;;;;;;3.37;2.10;;;29.30;24.30;;;;;;5028645;28;20448;-71
2022/06/21 14:38:05;;;;;;;5.70;1.70;;;29.40;24.50;;;;;;5031970;28;20447;-71
2022/06/21 14:40:59;;;;;;;5.20;2.67;;;29.40;24.70;;;;;;5029318;28;20480;-71
2022/06/21 14:43:53;;;;;;;4.60;2.50;;;29.40;24.20;;;;;;5030629;28;20530;-72
2022/06/21 14:46:44;;;;;;;3.87;2.43;;;29.40;24.30;;;;;;5027188;28;21012;-71
2022/06/21 14:49:34;;;;;;;5.10;2.27;;;29.30;23.70;;;;;;5030411;28;20533;-72
2022/06/21 14:52:48;;;;;;;5.97;2.63;;;29.30;25.50;;;;;;5030138;28;20818;-71
2022/06/21 14:55:42;;;;;;;9.73;2.80;;;29.40;24.00;;;;;;5029221;28;20507;-71
2022/06/21 14:58:42;;;;;;;5.07;2.60;;;29.40;24.80;;;;;;5026961;28;20540;-71
2022/06/21 15:01:41;;;;;;;4.70;2.60;;;29.60;24.20;;;;;;5033492;28;20460;-71
2022/06/21 15:04:37;;;;;;;5.10;2.47;;;29.50;23.30;;;;;;5037377;28;20441;-71
2022/06/21 15:07:34;;;;;;;5.37;2.43;;;29.30;23.90;;;;;;5035280;28;20449;-71
2022/06/21 15:10:25;;;;;;;5.50;2.50;;;29.50;24.70;;;;;;5029171;28;20465;-71
2022/06/21 15:13:22;;;;;;;2.83;2.00;;;29.60;25.80;;;;;;5034486;28;20604;-71
2022/06/21 15:16:16;;;;;;;4.70;2.10;;;29.50;24.50;;;;;;5030895;28;20444;-71
2022/06/21 15:19:53;;;;;;;5.80;3.00;;;29.30;25.00;;;;;;5016952;28;20528;-71
2022/06/21 15:22:22;;;;;;;3.63;2.30;;;29.20;25.00;;;;;;5029061;28;20459;-71
2022/06/21 15:25:41;;;;;;;4.47;2.57;;;29.40;24.30;;;;;;5020570;28;20449;-72